Weather observations for the past three days for
Ardmore, Ardmore Municipal Airport
Metric (Imperial)
Date Time (cdt) Wind (kph) Vis. (km) Weather Sky Cond. Temperature (ºC) Relative Humidity Wind Chill (°C) Heat Index (°C) Pressure Precipitation (cm)
Air Dwpt 6 hour altimeter (cm) sea level (mb) 1 hr 3 hr 6 hr
Max. Min.
04 13:50 SE 17 G 35 16.09 Fair CLR 37 20 37% 40 75.97 0.0
04 12:50 S 20 16.09 Fair CLR 36 20 39% 39 76.02 0.0
04 11:50 S 24 16.09 Fair CLR 35 21 44% 38 76.07 0.0
04 10:50 S 15 G 24 16.09 Fair CLR 32 22 55% 36 76.1 0.0
04 09:50 Calm 16.09 Fair CLR 30 23 66% 34 76.1 0.0
04 08:50 SE 7 16.09 Mostly Cloudy BKN075 27 22 74% 29 76.07 0.0
04 07:50 SE 7 16.09 Fair CLR 25 22 83% 26 76.07 0.0
04 06:50 Calm 16.09 Partly Cloudy SCT070 23 21 89% 76.02 0.0
04 06:35 Calm 16.09 Fair CLR 23 21 89% 76.02 0.0
04 06:15 Calm 16.09 Fair CLR 23 21 89% 76.02 0.0
04 05:55 Calm 16.09 Fair CLR 23 21 89% 76.02 0.0
04 05:35 Calm 16.09 A Few Clouds FEW060 23 21 89% 76 0.0
04 05:15 Calm 16.09 A Few Clouds FEW055 23 21 89% 76 0.0
04 04:55 Calm 16.09 Fair CLR 23 21 89% 76 0.0
04 04:35 Calm 16.09 A Few Clouds FEW050 23 21 89% 76 0.0
04 04:15 Calm 16.09 Partly Cloudy SCT050 24 21 83% 24 76 0.0
04 03:55 Calm 16.09 Mostly Cloudy BKN050 24 20 78% 24 76 0.0
04 03:35 Calm 16.09 Mostly Cloudy BKN050 25 20 74% 26 76 0.0
04 03:15 Calm 16.09 Partly Cloudy SCT050 SCT055 24 20 78% 24 76 0.0
04 02:55 Calm 16.09 Mostly Cloudy SCT049 BKN055 25 21 79% 26 75.97 0.0
04 02:35 Calm 16.09 Mostly Cloudy BKN046 BKN050 25 21 79% 26 75.97 0.0
04 02:15 Calm 16.09 Mostly Cloudy BKN050 26 21 74% 27 75.97 0.0
04 01:55 Calm 16.09 Mostly Cloudy BKN050 BKN055 26 21 74% 27 75.97 0.0
04 01:35 Calm 16.09 Mostly Cloudy SCT050 BKN055 26 21 74% 27 76 0.0
04 01:15 Calm 16.09 Partly Cloudy FEW050 SCT055 26 21 74% 27 76 0.0
04 00:55 Calm 16.09 A Few Clouds FEW055 26 22 79% 28 75.97 0.0
04 00:35 Calm 16.09 Fair CLR 27 22 74% 29 75.97 0.0
04 00:15 SE 13 16.09 A Few Clouds FEW060 27 21 70% 29 75.97 0.0
03 23:55 Calm 16.09 A Few Clouds FEW060 27 21 70% 29 75.97 0.0
03 23:35 Calm 16.09 Fair CLR 27 22 74% 29 75.97 0.0
03 23:15 SE 11 16.09 Fair CLR 27 22 74% 29 75.97 0.0
03 22:55 Calm 16.09 Fair CLR 27 22 74% 29 75.97 0.0
03 22:35 SE 9 16.09 Fair CLR 27 22 74% 29 75.97 0.0
03 22:15 Calm 16.09 Fair CLR 28 22 70% 31 75.97 0.0
03 21:50 SE 13 16.09 Fair CLR 29 22 66% 32 75.9 0.0
03 20:50 SE 13 16.09 Fair CLR 29 22 66% 32 75.9 0.0
03 19:50 SE 11 G 20 16.09 Fair CLR 30 22 62% 33 75.84 0.0
03 18:50 SE 20 G 31 16.09 A Few Clouds FEW050 32 22 55% 36 75.82 0.0
03 17:50 SE 20 16.09 A Few Clouds FEW050 33 22 52% 37 75.82 0.0
03 16:50 SE 22 16.09 A Few Clouds FEW050 34 23 53% 39 75.82 0.0
03 15:50 E 19 16.09 Partly Cloudy SCT050 34 23 53% 39 75.87 0.0
03 14:50 SE 20 16.09 Partly Cloudy SCT050 34 22 50% 38 75.9 0.0
03 13:50 S 19 G 30 16.09 Mostly Cloudy BKN044 34 22 50% 38 75.97 0.0
03 12:50 SE 11 G 24 16.09 Mostly Cloudy SCT029 SCT029 BKN041 32 22 55% 36 76 0.0
03 11:50 SE 15 G 26 16.09 Overcast BKN019 BKN025 OVC033 29 23 70% 33 76.05 0.0
03 10:50 E 11 16.09 Overcast SCT013 BKN018 OVC026 27 23 79% 30 76.07 0.0
03 09:50 E 13 16.09 Overcast OVC021 27 22 74% 29 76.07 0.0
03 08:50 Calm 16.09 Overcast OVC020 27 22 74% 29 76.07 0.0
03 07:50 E 13 16.09 Overcast OVC022 26 22 79% 28 76.05 0.0
03 06:50 Calm 16.09 Overcast OVC021 25 22 83% 26 76.02 0.0
03 06:35 Calm 16.09 Overcast OVC021 24 22 89% 24 76.02 0.0
03 06:15 Calm 16.09 Overcast OVC020 24 21 83% 24 76.02 0.0
03 05:55 Calm 16.09 Mostly Cloudy BKN021 23 21 89% 76.02 0.0
03 05:35 Calm 16.09 Partly Cloudy SCT023 24 21 83% 24 76 0.0
03 05:15 Calm 16.09 Overcast OVC022 25 21 79% 26 76.02 0.0
03 04:55 Calm 16.09 Overcast OVC022 24 21 83% 24 76.02 0.0
03 04:35 Calm 16.09 Mostly Cloudy BKN023 24 21 83% 24 76.02 0.0
03 04:15 Calm 16.09 Fair CLR 24 21 83% 24 76.02 0.0
03 03:55 Calm 16.09 Fair CLR 25 21 79% 26 76.02 0.0
03 03:35 Calm 16.09 Fair CLR 25 21 79% 26 76.02 0.0
03 03:15 Calm 16.09 Fair CLR 25 21 79% 26 76.02 0.0
03 02:55 Calm 16.09 Fair CLR 25 21 79% 26 76 0.0
03 02:35 Calm 16.09 Fair CLR 26 21 74% 27 76 0.0
03 02:15 Calm 16.09 Fair CLR 26 21 74% 27 76.02 0.0
03 01:55 Calm 16.09 Fair CLR 26 21 74% 27 76.02 0.0
03 01:35 Calm 16.09 Fair CLR 26 21 74% 27 76.02 0.0
03 01:15 Calm 16.09 Fair CLR 27 21 70% 29 76.02 0.0
03 00:55 SE 6 16.09 Fair CLR 27 21 70% 29 76 0.0
03 00:35 SE 7 16.09 Fair CLR 28 21 66% 30 76.02 0.0
03 00:15 Calm 16.09 Fair CLR 28 21 66% 30 76 0.0
02 23:55 SE 11 16.09 Fair CLR 28 21 66% 30 76.02 0.0
02 23:35 SE 13 16.09 Fair CLR 29 21 62% 31 76.02 0.0
02 23:15 SE 11 16.09 Fair CLR 29 21 62% 31 76.02 0.0
02 22:55 SE 11 16.09 Fair CLR 30 21 59% 33 76.02 0.0
02 22:35 SE 13 16.09 Fair CLR 31 21 55% 34 76.02 0.0
02 22:15 SE 17 16.09 Fair CLR 31 21 55% 34 76.02 0.0
02 21:50 SE 17 16.09 Fair CLR 31 20 52% 33 76 0.0
02 20:50 Calm 16.09 Fair CLR 31 19 49% 32 75.92 0.0
02 19:50 SE 15 16.09 Fair CLR 34 19 41% 36 75.87 0.0
02 18:50 E 17 16.09 Fair CLR 36 18 34% 37 75.87 0.0
02 17:50 SE 15 G 24 16.09 Fair CLR 37 18 33% 39 75.87 0.0
02 16:50 SE 17 16.09 Fair CLR 38 18 31% 40 75.9 0.0
02 15:50 Vrbl 11 G 26 16.09 Fair CLR 38 19 33% 40 75.97 0.0
02 14:50 S 13 G 26 16.09 Fair CLR 38 19 33% 40 76.02 0.0
02 13:50 SE 13 16.09 Fair CLR 38 18 31% 40 76.07 0.0
02 12:50 SE 9 G 19 16.09 Fair CLR 36 20 39% 39 76.17 0.0
02 11:50 SE 9 G 19 16.09 Fair CLR 35 21 44% 38 76.23 0.0
02 10:50 SE 11 16.09 Fair CLR 34 21 47% 37 76.25 0.0
02 09:50 Calm 16.09 Fair CLR 32 21 52% 35 76.25 0.0
02 07:50 Calm 16.09 Fair CLR 25 21 79% 26 76.25 0.0
02 06:50 Calm 16.09 Fair CLR 24 21 83% 24 76.2 0.0
02 06:35 Calm 16.09 Fair CLR 24 20 78% 24 76.2 0.0
02 06:15 Calm 16.09 Fair CLR 24 21 83% 24 76.17 0.0
02 05:55 Calm 16.09 Fair CLR 24 21 83% 24 76.17 0.0
02 05:35 Calm 16.09 Fair CLR 25 20 74% 26 76.17 0.0
02 05:15 Calm 16.09 Fair CLR 24 20 78% 24 76.17 0.0
02 04:55 Calm 16.09 Fair CLR 25 20 74% 26 76.17 0.0
02 04:35 Calm 16.09 Fair CLR 26 20 70% 27 76.17 0.0
02 04:15 Calm 16.09 Fair CLR 26 20 70% 27 76.17 0.0
02 03:55 Calm 16.09 Fair CLR 26 20 70% 27 76.17 0.0
02 03:35 Calm 16.09 Fair CLR 25 20 74% 26 76.17 0.0
02 03:15 Calm 16.09 Fair CLR 25 20 74% 26 76.15 0.0
02 02:55 Calm 16.09 Fair CLR 25 20 74% 26 76.15 0.0
02 02:35 Calm 16.09 Fair CLR 26 20 70% 27 76.15 0.0
02 02:15 Calm 16.09 Fair CLR 26 20 70% 27 76.17 0.0
02 01:55 Calm 16.09 Fair CLR 25 20 74% 26 76.17 0.0
02 01:35 Calm 16.09 Fair CLR 26 20 70% 27 76.15 0.0
02 01:15 Calm 16.09 Fair CLR 26 20 70% 27 76.15 0.0
02 00:55 Calm 16.09 Fair CLR 26 19 65% 27 76.15 0.0
02 00:35 Calm 16.09 Fair CLR 26 20 70% 27 76.15 0.0
02 00:15 Calm 16.09 Fair CLR 26 20 70% 27 76.15 0.0
01 23:55 Calm 16.09 Fair CLR 26 20 70% 27 76.12 0.0
01 23:35 Calm 16.09 Fair CLR 26 19 65% 27 76.12 0.0
01 23:15 Calm 16.09 Fair CLR 26 20 70% 27 76.12 0.0
01 22:55 Calm 16.09 Fair CLR 27 19 62% 28 76.12 0.0
01 22:35 Calm 16.09 Fair CLR 28 19 58% 29 76.1 0.0
01 22:15 Calm 16.09 Fair CLR 29 19 55% 30 76.1 0.0
01 21:50 Calm 16.09 Fair CLR 29 19 55% 30 76.05 0.0
01 20:50 Calm 16.09 Fair CLR 32 18 43% 33 76 0.0
01 19:50 Calm 16.09 Fair CLR 33 18 41% 34 75.97 0.0
01 18:50 SE 13 G 22 16.09 Fair CLR 36 17 32% 37 76 0.0
01 17:50 SE 13 16.09 Fair CLR 37 16 29% 37 76 0.0
01 16:50 SE 13 G 24 16.09 Fair CLR 38 17 29% 39 76 0.0
01 15:50 S 13 G 24 16.09 Fair CLR 39 17 27% 40 76.05 0.0
01 14:50 SE 17 16.09 Fair CLR 37 17 31% 38 76.07 0.0
Date Time (cdt) Wind (kph) Vis. (km) Weather Sky Cond. Air Dwpt Max. Min. Relative Humidity Wind Chill (°C) Heat Index (°C) altimeter (cm) sea level (mb) 1 hr 3 hr 6 hr
6 hour
Temperature (ºC) Pressure Precipitation (cm)